Private Wetterstation Wechselburg
Wetterdaten: Mittwoch, 05.06.2013
Datum Zeit Temp. +2m Bodentemp. Temp.+5cm Temp. Wind Windchill X Diff Temp. Feuchte +2m Feuchte +5cm Sonnenschein Luftdruck Regen Wind Richtung Richtung Sonnenschein UV Taupunkt Windchill Windben
05.06.2013 00:00 10,4 C 19,7 C 11,3 C 11,2 C 11,2 C 0,8 C 90 % 89 % 0 % 1018,1 hPa 0,0 l/m 0,0 km/h (0 Bft) O-NO 67 0 min 0,1 UV-I 8,8 C 11,2 C 0,0 km/h (0 Bft)
05.06.2013 00:05 10,3 C 19,7 C 11,3 C 11,2 C 11,2 C 0,9 C 90 % 89 % 0 % 1018,1 hPa 0,0 l/m 0,0 km/h (0 Bft) O-NO 67 0 min 0,1 UV-I 8,7 C 11,2 C 0,0 km/h (0 Bft)
05.06.2013 00:10 10,4 C 19,7 C 11,4 C 11,3 C 11,3 C 0,9 C 90 % 90 % 0 % 1018,1 hPa 0,0 l/m 0,0 km/h (0 Bft) O-NO 67 0 min 0,1 UV-I 8,8 C 11,3 C 0,0 km/h (0 Bft)
05.06.2013 00:15 10,3 C 19,7 C 11,5 C 11,4 C 11,4 C 1,1 C 90 % 90 % 0 % 1018,2 hPa 0,0 l/m 0,0 km/h (0 Bft) NW 315 0 min 0,1 UV-I 8,7 C 11,4 C 0,0 km/h (0 Bft)
05.06.2013 00:20 10,4 C 19,7 C 11,5 C 11,4 C 11,4 C 1,0 C 91 % 90 % 0 % 1018,2 hPa 0,0 l/m 0,0 km/h (0 Bft) SW 225 0 min 0,0 UV-I 9,0 C 11,4 C 0,0 km/h (0 Bft)
05.06.2013 00:25 10,3 C 19,7 C 11,5 C 11,4 C 11,4 C 1,1 C 91 % 90 % 0 % 1018,2 hPa 0,0 l/m 0,0 km/h (0 Bft) SW 225 0 min 0,0 UV-I 8,9 C 11,4 C 0,0 km/h (0 Bft)
05.06.2013 00:30 10,4 C 19,7 C 11,5 C 11,5 C 11,5 C 1,1 C 91 % 90 % 0 % 1018,2 hPa 0,0 l/m 0,0 km/h (0 Bft) O-NO 67 0 min 0,1 UV-I 9,0 C 11,5 C 0,0 km/h (0 Bft)
05.06.2013 00:35 10,4 C 19,7 C 11,5 C 11,5 C 11,5 C 1,1 C 91 % 90 % 0 % 1018,6 hPa 0,0 l/m 0,0 km/h (0 Bft) O-NO 67 0 min 0,1 UV-I 9,0 C 11,5 C 0,0 km/h (0 Bft)
05.06.2013 00:41 10,5 C 19,7 C 11,6 C 11,5 C 11,5 C 1,0 C 91 % 90 % 0 % 1018,6 hPa 0,0 l/m 0,0 km/h (0 Bft) N 0 0 min 0,1 UV-I 9,1 C 11,5 C 0,0 km/h (0 Bft)
05.06.2013 01:00 10,4 C 19,7 C 11,5 C 11,1 C 11,1 C 0,7 C 91 % 90 % 0 % 1018,3 hPa 0,0 l/m 0,3 km/h (0 Bft) O 90 0 min 0,0 UV-I 9,0 C 11,1 C 2,1 km/h (1 Bft)
05.06.2013 01:05 10,3 C 19,7 C 11,2 C 10,9 C 10,9 C 0,6 C 91 % 90 % 0 % 1018,3 hPa 0,0 l/m 0,0 km/h (0 Bft) O-NO 67 0 min 0,0 UV-I 8,9 C 10,9 C 0,0 km/h (0 Bft)
05.06.2013 01:10 10,1 C 19,7 C 11,0 C 10,6 C 10,6 C 0,5 C 90 % 90 % 0 % 1018,3 hPa 0,0 l/m 0,0 km/h (0 Bft) N-NO 22 0 min 0,0 UV-I 8,5 C 10,6 C 0,0 km/h (0 Bft)
05.06.2013 01:15 10,0 C 19,7 C 11,1 C 10,4 C 10,4 C 0,4 C 90 % 90 % 0 % 1018,4 hPa 0,0 l/m 0,0 km/h (0 Bft) N-NO 22 0 min 0,0 UV-I 8,4 C 10,4 C 0,0 km/h (0 Bft)
05.06.2013 01:20 9,9 C 19,7 C 10,8 C 10,2 C 10,2 C 0,3 C 90 % 90 % 0 % 1018,4 hPa 0,0 l/m 0,0 km/h (0 Bft) NO 45 0 min 0,0 UV-I 8,3 C 10,2 C 0,0 km/h (0 Bft)
05.06.2013 01:25 9,9 C 19,7 C 10,7 C 10,1 C 10,1 C 0,2 C 90 % 90 % 0 % 1018,4 hPa 0,0 l/m 0,0 km/h (0 Bft) O-NO 67 0 min 0,0 UV-I 8,3 C 10,1 C 0,0 km/h (0 Bft)
05.06.2013 01:30 9,6 C 19,7 C 10,6 C 9,9 C 9,9 C 0,3 C 90 % 90 % 0 % 1018,4 hPa 0,0 l/m 0,0 km/h (0 Bft) N-NO 22 0 min 0,0 UV-I 8,0 C 9,9 C 0,0 km/h (0 Bft)
05.06.2013 01:35 9,6 C 19,7 C 10,5 C 9,7 C 9,7 C 0,1 C 90 % 90 % 0 % 1018,4 hPa 0,0 l/m 0,0 km/h (0 Bft) NO 45 0 min 0,0 UV-I 8,0 C 9,7 C 0,0 km/h (0 Bft)
05.06.2013 01:40 9,5 C 19,7 C 10,4 C 9,6 C 9,6 C 0,1 C 90 % 90 % 0 % 1018,4 hPa 0,0 l/m 0,0 km/h (0 Bft) NO 45 0 min 0,0 UV-I 7,9 C 9,6 C 0,0 km/h (0 Bft)
05.06.2013 01:45 9,3 C 19,6 C 10,3 C 9,5 C 9,5 C 0,2 C 90 % 90 % 0 % 1018,4 hPa 0,0 l/m 0,0 km/h (0 Bft) NO 45 0 min 0,0 UV-I 7,7 C 9,5 C 0,0 km/h (0 Bft)
05.06.2013 01:50 9,2 C 19,6 C 10,2 C 9,2 C 9,2 C 0,0 C 90 % 90 % 0 % 1018,4 hPa 0,0 l/m 0,0 km/h (0 Bft) O-NO 67 0 min 0,0 UV-I 7,6 C 9,2 C 0,0 km/h (0 Bft)
05.06.2013 01:55 9,0 C 19,6 C 10,0 C 9,2 C 9,2 C 0,2 C 90 % 90 % 0 % 1018,4 hPa 0,0 l/m 0,0 km/h (0 Bft) NO 45 0 min 0,0 UV-I 7,4 C 9,2 C 0,0 km/h (0 Bft)
05.06.2013 02:00 8,9 C 19,6 C 9,9 C 9,0 C 9,0 C 0,1 C 89 % 90 % 0 % 1018,4 hPa 0,0 l/m 0,0 km/h (0 Bft) O-NO 67 0 min 0,0 UV-I 7,2 C 9,0 C 0,0 km/h (0 Bft)
05.06.2013 02:05 8,8 C 19,6 C 9,7 C 9,0 C 9,0 C 0,2 C 89 % 90 % 0 % 1018,4 hPa 0,0 l/m 0,0 km/h (0 Bft) O-NO 67 0 min 0,0 UV-I 7,1 C 9,0 C 0,0 km/h (0 Bft)
05.06.2013 02:10 8,7 C 19,6 C 9,6 C 8,8 C 8,8 C 0,1 C 89 % 90 % 0 % 1018,4 hPa 0,0 l/m 0,0 km/h (0 Bft) NO 45 0 min 0,0 UV-I 7,0 C 8,8 C 0,0 km/h (0 Bft)
05.06.2013 02:15 8,7 C 19,6 C 9,7 C 8,8 C 8,8 C 0,1 C 89 % 90 % 0 % 1018,4 hPa 0,0 l/m 0,0 km/h (0 Bft) O-NO 67 0 min 0,0 UV-I 7,0 C 8,8 C 0,0 km/h (0 Bft)
05.06.2013 02:20 8,5 C 19,6 C 9,4 C 8,6 C 8,6 C 0,1 C 89 % 90 % 0 % 1018,4 hPa 0,0 l/m 0,0 km/h (0 Bft) O-NO 67 0 min 0,0 UV-I 6,8 C 8,6 C 0,0 km/h (0 Bft)
05.06.2013 02:25 8,5 C 19,6 C 9,3 C 8,5 C 8,5 C 0,0 C 89 % 90 % 0 % 1018,4 hPa 0,0 l/m 0,0 km/h (0 Bft) O 90 0 min 0,0 UV-I 6,8 C 8,5 C 0,0 km/h (0 Bft)
05.06.2013 02:30 8,3 C 19,6 C 9,3 C 8,4 C 8,4 C 0,1 C 89 % 90 % 0 % 1018,4 hPa 0,0 l/m 0,0 km/h (0 Bft) NO 45 0 min 0,0 UV-I 6,6 C 8,4 C 0,0 km/h (0 Bft)
05.06.2013 02:35 8,3 C 19,6 C 9,1 C 8,3 C 8,3 C 0,0 C 89 % 90 % 0 % 1018,4 hPa 0,0 l/m 0,0 km/h (0 Bft) N-NO 22 0 min 0,0 UV-I 6,6 C 8,3 C 0,0 km/h (0 Bft)
05.06.2013 02:40 8,0 C 19,7 C 9,1 C 8,1 C 8,1 C 0,1 C 89 % 90 % 0 % 1018,4 hPa 0,0 l/m 0,0 km/h (0 Bft) NO 45 0 min 0,0 UV-I 6,3 C 8,1 C 0,0 km/h (0 Bft)
05.06.2013 02:45 8,1 C 19,7 C 8,9 C 8,1 C 8,1 C 0,0 C 89 % 90 % 0 % 1018,4 hPa 0,0 l/m 0,0 km/h (0 Bft) O-NO 67 0 min 0,0 UV-I 6,4 C 8,1 C 0,0 km/h (0 Bft)
05.06.2013 02:50 7,9 C 19,7 C 8,9 C 7,9 C 7,8 C 0,0 C 89 % 90 % 0 % 1018,4 hPa 0,0 l/m 0,0 km/h (0 Bft) O-NO 67 0 min 0,0 UV-I 6,2 C 7,8 C 0,0 km/h (0 Bft)
05.06.2013 02:55 7,9 C 19,7 C 8,8 C 7,9 C 7,8 C 0,0 C 89 % 90 % 0 % 1018,4 hPa 0,0 l/m 0,0 km/h (0 Bft) O-NO 67 0 min 0,0 UV-I 6,2 C 7,8 C 0,0 km/h (0 Bft)
05.06.2013 03:00 7,7 C 19,7 C 8,7 C 7,7 C 7,6 C 0,0 C 89 % 89 % 0 % 1018,4 hPa 0,0 l/m 0,0 km/h (0 Bft) O 90 0 min 0,0 UV-I 6,0 C 7,6 C 0,0 km/h (0 Bft)
05.06.2013 03:05 7,6 C 19,7 C 8,7 C 7,6 C 7,6 C 0,0 C 89 % 89 % 0 % 1018,4 hPa 0,0 l/m 0,0 km/h (0 Bft) O-NO 67 0 min 0,0 UV-I 5,9 C 7,6 C 0,0 km/h (0 Bft)
05.06.2013 03:10 7,5 C 19,6 C 8,5 C 7,5 C 7,5 C 0,0 C 89 % 89 % 0 % 1018,4 hPa 0,0 l/m 0,2 km/h (0 Bft) O-NO 67 0 min 0,0 UV-I 5,8 C 7,5 C 0,0 km/h (0 Bft)
05.06.2013 03:15 7,5 C 19,6 C 8,5 C 7,5 C 7,5 C 0,0 C 89 % 89 % 0 % 1018,6 hPa 0,0 l/m 0,2 km/h (0 Bft) O-NO 67 0 min 0,0 UV-I 5,8 C 7,5 C 0,0 km/h (0 Bft)
05.06.2013 03:20 7,3 C 19,6 C 8,4 C 7,4 C 7,4 C 0,1 C 89 % 89 % 0 % 1018,6 hPa 0,0 l/m 0,2 km/h (0 Bft) O-NO 67 0 min 0,0 UV-I 5,6 C 7,4 C 2,1 km/h (1 Bft)
05.06.2013 03:25 7,2 C 19,6 C 8,4 C 7,4 C 7,4 C 0,2 C 89 % 89 % 0 % 1018,6 hPa 0,0 l/m 0,6 km/h (0 Bft) O-NO 67 0 min 0,0 UV-I 5,5 C 7,4 C 0,0 km/h (0 Bft)
05.06.2013 03:30 7,1 C 19,6 C 8,3 C 7,3 C 7,3 C 0,2 C 89 % 89 % 0 % 1018,6 hPa 0,0 l/m 1,1 km/h (1 Bft) O-NO 67 0 min 0,0 UV-I 5,4 C 7,3 C 2,1 km/h (1 Bft)
05.06.2013 03:35 7,1 C 19,6 C 8,1 C 7,3 C 7,3 C 0,2 C 89 % 89 % 0 % 1018,4 hPa 0,0 l/m 0,8 km/h (0 Bft) O-NO 67 0 min 0,0 UV-I 5,4 C 7,3 C 0,0 km/h (0 Bft)
05.06.2013 03:40 6,8 C 19,6 C 8,0 C 7,1 C 7,1 C 0,3 C 89 % 89 % 0 % 1018,4 hPa 0,0 l/m 0,3 km/h (0 Bft) O-NO 67 0 min 0,0 UV-I 5,1 C 7,1 C 0,0 km/h (0 Bft)
05.06.2013 03:45 6,8 C 19,6 C 7,9 C 6,9 C 6,9 C 0,1 C 89 % 89 % 0 % 1018,4 hPa 0,0 l/m 0,0 km/h (0 Bft) O-NO 67 0 min 0,0 UV-I 5,1 C 6,9 C 0,0 km/h (0 Bft)
05.06.2013 03:50 6,7 C 19,6 C 7,7 C 6,7 C 6,6 C 0,0 C 89 % 90 % 0 % 1018,4 hPa 0,0 l/m 0,0 km/h (0 Bft) O-NO 67 0 min 0,0 UV-I 5,0 C 6,6 C 0,0 km/h (0 Bft)
05.06.2013 03:55 6,5 C 19,6 C 7,6 C 6,5 C 6,4 C 0,0 C 89 % 90 % 0 % 1018,5 hPa 0,0 l/m 0,0 km/h (0 Bft) O-NO 67 0 min 0,0 UV-I 4,8 C 6,4 C 0,0 km/h (0 Bft)
05.06.2013 04:00 6,3 C 19,5 C 7,6 C 6,2 C 6,1 C 0,0 C 89 % 90 % 0 % 1018,5 hPa 0,0 l/m 0,0 km/h (0 Bft) O 90 0 min 0,0 UV-I 4,6 C 6,1 C 0,0 km/h (0 Bft)
05.06.2013 04:05 6,3 C 19,5 C 7,5 C 6,2 C 6,1 C 0,0 C 89 % 90 % 0 % 1018,5 hPa 0,0 l/m 0,0 km/h (0 Bft) O-NO 67 0 min 0,0 UV-I 4,6 C 6,1 C 0,0 km/h (0 Bft)
05.06.2013 04:10 6,1 C 19,5 C 7,3 C 6,1 C 6,0 C 0,0 C 89 % 89 % 0 % 1018,5 hPa 0,0 l/m 0,0 km/h (0 Bft) NO 45 0 min 0,0 UV-I 4,4 C 6,0 C 0,0 km/h (0 Bft)
05.06.2013 04:15 6,0 C 19,5 C 7,3 C 6,0 C 5,9 C 0,0 C 89 % 89 % 0 % 1018,5 hPa 0,0 l/m 0,0 km/h (0 Bft) O-NO 67 0 min 0,0 UV-I 4,3 C 5,9 C 0,0 km/h (0 Bft)
05.06.2013 04:20 5,9 C 19,5 C 7,2 C 5,9 C 5,8 C 0,0 C 89 % 90 % 0 % 1018,5 hPa 0,0 l/m 0,0 km/h (0 Bft) NO 45 0 min 0,0 UV-I 4,2 C 5,8 C 0,0 km/h (0 Bft)
05.06.2013 04:25 5,9 C 19,5 C 7,1 C 5,8 C 5,7 C 0,0 C 89 % 90 % 0 % 1018,5 hPa 0,0 l/m 0,0 km/h (0 Bft) NO 45 0 min 0,0 UV-I 4,2 C 5,7 C 0,0 km/h (0 Bft)
05.06.2013 04:30 5,6 C 19,5 C 7,0 C 5,6 C 5,5 C 0,0 C 89 % 90 % 0 % 1018,5 hPa 0,0 l/m 0,0 km/h (0 Bft) NO 45 0 min 0,0 UV-I 3,9 C 5,5 C 0,0 km/h (0 Bft)
05.06.2013 04:35 5,6 C 19,5 C 7,1 C 5,5 C 5,3 C 0,0 C 89 % 90 % 0 % 1018,6 hPa 0,0 l/m 0,0 km/h (0 Bft) S-SW 202 0 min 0,0 UV-I 3,9 C 5,3 C 0,0 km/h (0 Bft)
05.06.2013 04:40 5,5 C 19,5 C 6,9 C 5,4 C 5,3 C 0,0 C 89 % 90 % 0 % 1018,6 hPa 0,0 l/m 0,0 km/h (0 Bft) W 270 0 min 0,0 UV-I 3,8 C 5,3 C 0,0 km/h (0 Bft)
05.06.2013 04:45 5,3 C 19,5 C 6,9 C 5,3 C 5,3 C 0,0 C 89 % 90 % 0 % 1018,6 hPa 0,0 l/m 0,0 km/h (0 Bft) W 270 0 min 0,0 UV-I 3,6 C 5,3 C 0,0 km/h (0 Bft)
05.06.2013 04:50 5,2 C 19,4 C 6,7 C 5,2 C 5,2 C 0,0 C 89 % 90 % 0 % 1018,6 hPa 0,0 l/m 0,0 km/h (0 Bft) W 270 0 min 0,0 UV-I 3,5 C 5,2 C 0,0 km/h (0 Bft)
05.06.2013 04:55 5,1 C 19,4 C 6,7 C 5,1 C 5,1 C 0,0 C 89 % 90 % 0 % 1018,9 hPa 0,0 l/m 0,0 km/h (0 Bft) W 270 0 min 0,0 UV-I 3,4 C 5,1 C 0,0 km/h (0 Bft)
05.06.2013 05:00 5,0 C 19,4 C 6,7 C 5,1 C 5,1 C 0,1 C 89 % 90 % 0 % 1018,9 hPa 0,0 l/m 0,0 km/h (0 Bft) W 270 0 min 0,0 UV-I 3,3 C 5,1 C 0,0 km/h (0 Bft)
05.06.2013 05:05 5,0 C 19,4 C 6,5 C 5,0 C 5,0 C 0,0 C 89 % 90 % 0 % 1018,9 hPa 0,0 l/m 0,0 km/h (0 Bft) W-SW 247 0 min 0,0 UV-I 3,3 C 5,0 C 0,0 km/h (0 Bft)
05.06.2013 05:10 4,8 C 19,4 C 6,4 C 4,8 C 4,8 C 0,0 C 89 % 90 % 0 % 1018,9 hPa 0,0 l/m 0,0 km/h (0 Bft) W-SW 247 0 min 0,0 UV-I 3,1 C 4,8 C 0,0 km/h (0 Bft)
05.06.2013 05:15 4,8 C 19,4 C 6,4 C 4,9 C 4,9 C 0,1 C 89 % 90 % 3 % 1019,2 hPa 0,0 l/m 0,0 km/h (0 Bft) W-SW 247 0 min 0,0 UV-I 3,1 C 4,9 C 0,0 km/h (0 Bft)
05.06.2013 05:20 4,8 C 19,5 C 6,4 C 4,8 C 4,7 C 0,0 C 90 % 90 % 0 % 1019,2 hPa 0,0 l/m 0,0 km/h (0 Bft) W-SW 247 0 min 0,0 UV-I 3,3 C 4,7 C 0,0 km/h (0 Bft)
05.06.2013 05:25 4,7 C 19,5 C 6,3 C 4,7 C 4,7 C 0,0 C 89 % 90 % 0 % 1019,2 hPa 0,0 l/m 0,0 km/h (0 Bft) W-SW 247 0 min 0,0 UV-I 3,0 C 4,7 C 0,0 km/h (0 Bft)
05.06.2013 05:30 4,6 C 19,4 C 6,3 C 4,8 C 4,8 C 0,2 C 89 % 90 % 5 % 1019,2 hPa 0,0 l/m 0,0 km/h (0 Bft) O-NO 67 0 min 0,0 UV-I 2,9 C 4,8 C 0,0 km/h (0 Bft)
05.06.2013 05:35 4,7 C 19,4 C 6,4 C 5,0 C 5,0 C 0,3 C 90 % 90 % 8 % 1018,9 hPa 0,0 l/m 0,0 km/h (0 Bft) O-NO 67 0 min 0,0 UV-I 3,2 C 5,0 C 0,0 km/h (0 Bft)
05.06.2013 05:40 4,6 C 19,4 C 6,3 C 5,0 C 5,0 C 0,4 C 90 % 90 % 11 % 1018,9 hPa 0,0 l/m 0,0 km/h (0 Bft) O-NO 67 0 min 0,0 UV-I 3,1 C 5,0 C 0,0 km/h (0 Bft)
05.06.2013 05:45 4,7 C 19,4 C 6,3 C 4,9 C 4,9 C 0,2 C 90 % 90 % 5 % 1018,9 hPa 0,0 l/m 0,0 km/h (0 Bft) O-NO 67 0 min 0,0 UV-I 3,2 C 4,9 C 0,0 km/h (0 Bft)
05.06.2013 05:50 4,5 C 19,4 C 6,3 C 4,9 C 4,9 C 0,4 C 90 % 90 % 11 % 1018,9 hPa 0,0 l/m 0,0 km/h (0 Bft) NW 315 0 min 0,0 UV-I 3,0 C 4,9 C 0,0 km/h (0 Bft)
05.06.2013 05:55 4,4 C 19,4 C 6,2 C 4,9 C 4,9 C 0,5 C 90 % 90 % 13 % 1019,1 hPa 0,0 l/m 0,0 km/h (0 Bft) NW 315 0 min 0,0 UV-I 2,9 C 4,9 C 0,0 km/h (0 Bft)
05.06.2013 06:00 4,4 C 19,4 C 6,2 C 4,9 C 4,9 C 0,5 C 90 % 90 % 13 % 1019,1 hPa 0,0 l/m 0,0 km/h (0 Bft) W 270 0 min 0,0 UV-I 2,9 C 4,9 C 0,0 km/h (0 Bft)
05.06.2013 06:05 4,4 C 19,4 C 6,2 C 4,9 C 4,9 C 0,5 C 90 % 90 % 13 % 1019,1 hPa 0,0 l/m 0,0 km/h (0 Bft) W 270 0 min 0,0 UV-I 2,9 C 4,9 C 0,0 km/h (0 Bft)
05.06.2013 06:10 4,4 C 19,4 C 6,4 C 4,9 C 4,9 C 0,5 C 90 % 90 % 13 % 1019,1 hPa 0,0 l/m 0,0 km/h (0 Bft) W-SW 247 0 min 0,1 UV-I 2,9 C 4,9 C 0,0 km/h (0 Bft)
05.06.2013 06:15 4,4 C 19,4 C 6,4 C 5,0 C 5,0 C 0,6 C 90 % 90 % 16 % 1019,3 hPa 0,0 l/m 0,0 km/h (0 Bft) W-SW 247 0 min 0,1 UV-I 2,9 C 5,0 C 0,0 km/h (0 Bft)
05.06.2013 06:20 4,3 C 19,4 C 6,4 C 5,1 C 5,1 C 0,8 C 90 % 90 % 21 % 1019,3 hPa 0,0 l/m 0,0 km/h (0 Bft) W 270 0 min 0,1 UV-I 2,8 C 5,1 C 0,0 km/h (0 Bft)
05.06.2013 06:25 4,3 C 19,3 C 6,4 C 5,1 C 5,1 C 0,8 C 90 % 90 % 21 % 1019,3 hPa 0,0 l/m 0,0 km/h (0 Bft) W-SW 247 0 min 0,1 UV-I 2,8 C 5,1 C 0,0 km/h (0 Bft)
05.06.2013 06:30 4,3 C 19,3 C 6,5 C 5,3 C 5,3 C 1,0 C 90 % 90 % 26 % 1019,3 hPa 0,0 l/m 0,0 km/h (0 Bft) W-SW 247 0 min 0,1 UV-I 2,8 C 5,3 C 0,0 km/h (0 Bft)
05.06.2013 06:35 4,4 C 19,3 C 6,6 C 5,4 C 5,4 C 1,0 C 90 % 90 % 26 % 1019,1 hPa 0,0 l/m 0,0 km/h (0 Bft) SW 225 0 min 0,1 UV-I 2,9 C 5,4 C 0,0 km/h (0 Bft)
05.06.2013 06:41 4,4 C 19,3 C 6,9 C 5,6 C 5,6 C 1,2 C 90 % 90 % 32 % 1019,1 hPa 0,0 l/m 0,0 km/h (0 Bft) N 0 0 min 0,2 UV-I 2,9 C 5,6 C 0,0 km/h (0 Bft)
05.06.2013 07:00 4,9 C 19,2 C 8,3 C 11,6 C 11,6 C 6,7 C 91 % 90 % 100 % 1019,2 hPa 0,0 l/m 0,0 km/h (0 Bft) W 270 19 min 0,3 UV-I 3,6 C 11,6 C 0,0 km/h (0 Bft)
05.06.2013 07:05 5,2 C 19,2 C 8,3 C 13,2 C 13,2 C 8,0 C 92 % 90 % 100 % 1019,2 hPa 0,0 l/m 0,0 km/h (0 Bft) O-NO 67 5 min 0,3 UV-I 4,0 C 13,2 C 0,0 km/h (0 Bft)
05.06.2013 07:10 6,0 C 19,2 C 8,5 C 14,7 C 14,7 C 8,7 C 92 % 90 % 100 % 1019,2 hPa 0,0 l/m 0,0 km/h (0 Bft) O-NO 67 5 min 0,8 UV-I 4,8 C 14,7 C 0,0 km/h (0 Bft)
05.06.2013 07:15 6,4 C 19,2 C 8,6 C 15,8 C 15,8 C 9,4 C 93 % 91 % 100 % 1019,8 hPa 0,0 l/m 0,0 km/h (0 Bft) O-NO 67 5 min 0,8 UV-I 5,4 C 15,8 C 0,0 km/h (0 Bft)
05.06.2013 07:20 7,0 C 19,2 C 9,1 C 17,8 C 17,8 C 10,8 C 93 % 90 % 100 % 1019,8 hPa 0,0 l/m 0,0 km/h (0 Bft) O-NO 67 5 min 2,2 UV-I 5,9 C 17,8 C 0,0 km/h (0 Bft)
05.06.2013 07:25 7,5 C 19,1 C 9,3 C 18,8 C 18,8 C 11,3 C 93 % 90 % 100 % 1019,8 hPa 0,0 l/m 0,0 km/h (0 Bft) W 270 5 min 2,2 UV-I 6,4 C 18,8 C 0,0 km/h (0 Bft)
05.06.2013 07:30 7,7 C 19,1 C 9,4 C 19,2 C 19,2 C 11,5 C 93 % 90 % 100 % 1019,8 hPa 0,0 l/m 0,2 km/h (0 Bft) SW 225 5 min 2,7 UV-I 6,6 C 19,2 C 1,6 km/h (1 Bft)
05.06.2013 07:35 7,9 C 18,9 C 9,4 C 19,4 C 19,4 C 11,5 C 93 % 90 % 100 % 1020,7 hPa 0,0 l/m 0,2 km/h (0 Bft) S 180 5 min 2,7 UV-I 6,8 C 19,4 C 0,0 km/h (0 Bft)
05.06.2013 07:40 8,3 C 18,8 C 9,6 C 20,0 C 20,0 C 11,7 C 93 % 90 % 100 % 1020,7 hPa 0,0 l/m 0,2 km/h (0 Bft) S 180 5 min 0,0 UV-I 7,2 C 20,0 C 0,0 km/h (0 Bft)
05.06.2013 07:45 8,5 C 18,8 C 9,6 C 20,3 C 20,3 C 11,8 C 93 % 90 % 100 % 1020,7 hPa 0,0 l/m 0,0 km/h (0 Bft) S 180 5 min 0,0 UV-I 7,4 C 20,3 C 0,0 km/h (0 Bft)
05.06.2013 07:50 9,1 C 18,8 C 9,9 C 21,1 C 21,1 C 12,0 C 93 % 90 % 100 % 1020,7 hPa 0,0 l/m 0,0 km/h (0 Bft) NW 315 5 min 0,0 UV-I 8,0 C 21,1 C 0,0 km/h (0 Bft)
05.06.2013 07:55 9,2 C 18,7 C 9,9 C 21,2 C 21,2 C 12,0 C 93 % 90 % 100 % 1020,2 hPa 0,0 l/m 0,2 km/h (0 Bft) NW 315 5 min 0,0 UV-I 8,1 C 21,2 C 0,0 km/h (0 Bft)
05.06.2013 08:00 10,1 C 18,7 C 10,3 C 21,3 C 21,3 C 11,2 C 93 % 90 % 100 % 1020,2 hPa 0,0 l/m 0,3 km/h (0 Bft) NW 315 5 min 0,1 UV-I 9,0 C 21,3 C 2,9 km/h (1 Bft)
05.06.2013 08:05 10,1 C 18,7 C 10,3 C 21,5 C 21,5 C 11,4 C 92 % 90 % 100 % 1020,2 hPa 0,0 l/m 0,5 km/h (0 Bft) W 270 5 min 0,1 UV-I 8,9 C 21,5 C 0,0 km/h (0 Bft)
05.06.2013 08:10 10,1 C 18,7 C 10,4 C 21,9 C 21,9 C 11,8 C 91 % 89 % 100 % 1020,2 hPa 0,0 l/m 0,3 km/h (0 Bft) W-SW 247 5 min 0,1 UV-I 8,7 C 21,9 C 0,0 km/h (0 Bft)
05.06.2013 08:15 10,4 C 18,7 C 10,5 C 22,2 C 22,2 C 11,8 C 90 % 89 % 100 % 1020,0 hPa 0,0 l/m 0,2 km/h (0 Bft) N 360 5 min 0,1 UV-I 8,8 C 22,2 C 0,0 km/h (0 Bft)
05.06.2013 08:20 10,9 C 18,7 C 10,8 C 21,8 C 21,8 C 10,9 C 86 % 89 % 100 % 1020,0 hPa 0,0 l/m 0,6 km/h (0 Bft) N-NW 337 5 min 0,1 UV-I 8,7 C 21,8 C 3,1 km/h (1 Bft)
05.06.2013 08:25 10,8 C 18,7 C 10,9 C 21,6 C 21,6 C 10,8 C 87 % 89 % 100 % 1020,0 hPa 0,0 l/m 1,0 km/h (0 Bft) O-NO 67 5 min 0,1 UV-I 8,7 C 21,6 C 3,9 km/h (1 Bft)
05.06.2013 08:30 11,6 C 18,7 C 11,1 C 21,1 C 21,1 C 9,5 C 84 % 88 % 100 % 1020,0 hPa 0,0 l/m 1,8 km/h (1 Bft) N-NW 337 5 min 0,1 UV-I 9,0 C 21,1 C 4,7 km/h (1 Bft)
05.06.2013 08:35 11,6 C 18,7 C 11,2 C 21,3 C 21,3 C 9,7 C 83 % 88 % 100 % 1020,1 hPa 0,0 l/m 1,4 km/h (1 Bft) NO 45 5 min 0,1 UV-I 8,8 C 21,3 C 0,0 km/h (0 Bft)
05.06.2013 08:40 12,4 C 18,7 C 11,2 C 21,6 C 21,6 C 9,2 C 84 % 88 % 100 % 1020,1 hPa 0,0 l/m 1,1 km/h (1 Bft) N-NW 337 5 min 0,1 UV-I 9,8 C 21,6 C 2,6 km/h (1 Bft)
05.06.2013 08:45 12,9 C 18,7 C 11,2 C 21,7 C 21,7 C 8,8 C 80 % 87 % 100 % 1020,1 hPa 0,0 l/m 1,4 km/h (1 Bft) NO 45 5 min 0,1 UV-I 9,5 C 21,7 C 2,7 km/h (1 Bft)
05.06.2013 08:50 12,8 C 18,7 C 11,5 C 21,5 C 21,5 C 8,7 C 81 % 87 % 100 % 1020,1 hPa 0,0 l/m 1,8 km/h (1 Bft) O 90 5 min 0,1 UV-I 9,6 C 21,5 C 1,8 km/h (1 Bft)
05.06.2013 08:55 13,2 C 18,7 C 11,5 C 22,2 C 22,2 C 9,0 C 80 % 87 % 100 % 1020,4 hPa 0,0 l/m 1,1 km/h (1 Bft) O-NO 67 5 min 0,1 UV-I 9,8 C 22,2 C 0,0 km/h (0 Bft)
05.06.2013 09:00 13,9 C 18,7 C 11,6 C 22,6 C 22,6 C 8,7 C 76 % 87 % 100 % 1020,4 hPa 0,0 l/m 0,8 km/h (0 Bft) O-NO 67 5 min 0,2 UV-I 9,7 C 22,6 C 5,1 km/h (1 Bft)
05.06.2013 09:05 14,0 C 18,7 C 11,8 C 22,0 C 22,0 C 8,0 C 75 % 86 % 100 % 1020,4 hPa 0,0 l/m 1,4 km/h (1 Bft) W-SW 247 5 min 0,2 UV-I 9,6 C 22,0 C 0,0 km/h (0 Bft)
05.06.2013 09:10 14,1 C 18,6 C 11,7 C 22,7 C 22,7 C 8,6 C 76 % 87 % 100 % 1020,4 hPa 0,0 l/m 1,3 km/h (1 Bft) N-NO 22 5 min 0,2 UV-I 9,9 C 22,7 C 0,0 km/h (0 Bft)
05.06.2013 09:15 14,7 C 18,6 C 11,7 C 23,1 C 23,1 C 8,4 C 69 % 86 % 100 % 1020,0 hPa 0,0 l/m 1,0 km/h (0 Bft) O-NO 67 5 min 0,2 UV-I 9,1 C 23,1 C 7,1 km/h (2 Bft)
05.06.2013 09:20 14,5 C 18,6 C 11,9 C 22,2 C 22,2 C 7,7 C 68 % 85 % 100 % 1020,0 hPa 0,0 l/m 2,3 km/h (1 Bft) N-NO 22 5 min 0,2 UV-I 8,7 C 22,2 C 8,4 km/h (2 Bft)
05.06.2013 09:25 14,6 C 18,6 C 12,0 C 21,8 C 21,8 C 7,2 C 64 % 84 % 100 % 1020,0 hPa 0,0 l/m 3,4 km/h (1 Bft) O 90 5 min 0,2 UV-I 7,9 C 21,8 C 4,5 km/h (1 Bft)
05.06.2013 09:30 14,6 C 18,6 C 12,3 C 20,7 C 20,7 C 6,1 C 64 % 84 % 100 % 1020,0 hPa 0,0 l/m 3,9 km/h (1 Bft) NO 45 5 min 0,2 UV-I 7,9 C 20,7 C 5,8 km/h (2 Bft)
05.06.2013 09:35 14,4 C 18,5 C 12,3 C 20,3 C 20,3 C 5,9 C 64 % 82 % 100 % 1020,0 hPa 0,0 l/m 4,3 km/h (1 Bft) O 90 5 min 0,2 UV-I 7,7 C 20,3 C 4,3 km/h (1 Bft)
05.06.2013 09:40 14,0 C 18,5 C 12,4 C 20,3 C 20,3 C 6,3 C 64 % 83 % 100 % 1020,0 hPa 0,0 l/m 3,1 km/h (1 Bft) O-NO 67 5 min 0,1 UV-I 7,3 C 20,3 C 4,2 km/h (1 Bft)
05.06.2013 09:45 14,1 C 18,5 C 12,3 C 21,0 C 21,0 C 6,9 C 66 % 82 % 100 % 1020,0 hPa 0,0 l/m 2,3 km/h (1 Bft) O-SO 112 5 min 0,1 UV-I 7,8 C 21,0 C 0,0 km/h (0 Bft)
05.06.2013 09:50 14,1 C 18,5 C 12,5 C 21,1 C 21,1 C 7,0 C 62 % 80 % 100 % 1020,0 hPa 0,0 l/m 2,9 km/h (1 Bft) O 90 5 min 0,0 UV-I 6,9 C 21,1 C 3,9 km/h (1 Bft)
05.06.2013 09:55 13,9 C 18,5 C 12,5 C 20,8 C 20,8 C 6,9 C 65 % 81 % 100 % 1020,1 hPa 0,0 l/m 3,1 km/h (1 Bft) O-SO 112 5 min 0,0 UV-I 7,4 C 20,8 C 2,3 km/h (1 Bft)
05.06.2013 10:00 14,0 C 18,5 C 12,5 C 21,3 C 21,3 C 7,3 C 66 % 81 % 100 % 1020,1 hPa 0,0 l/m 2,4 km/h (1 Bft) O-NO 67 5 min 0,0 UV-I 7,7 C 21,3 C 4,2 km/h (1 Bft)
05.06.2013 10:05 14,1 C 18,5 C 12,9 C 20,9 C 20,9 C 6,8 C 64 % 80 % 100 % 1020,1 hPa 0,0 l/m 3,4 km/h (1 Bft) O-NO 67 5 min 0,0 UV-I 7,4 C 20,9 C 8,2 km/h (2 Bft)
05.06.2013 10:10 14,0 C 18,5 C 13,1 C 20,1 C 20,1 C 6,1 C 63 % 80 % 100 % 1020,1 hPa 0,0 l/m 4,8 km/h (1 Bft) O-SO 112 5 min 0,0 UV-I 7,1 C 20,1 C 4,2 km/h (1 Bft)
05.06.2013 10:15 14,0 C 18,5 C 13,0 C 20,2 C 20,2 C 6,2 C 64 % 78 % 100 % 1020,1 hPa 0,0 l/m 4,2 km/h (1 Bft) O-NO 67 5 min 0,0 UV-I 7,3 C 20,2 C 6,3 km/h (2 Bft)
05.06.2013 10:20 14,1 C 18,5 C 13,2 C 20,6 C 20,6 C 6,5 C 63 % 79 % 100 % 1020,1 hPa 0,0 l/m 3,1 km/h (1 Bft) O-NO 67 5 min 0,0 UV-I 7,2 C 20,6 C 3,7 km/h (1 Bft)
05.06.2013 10:25 14,2 C 18,5 C 13,3 C 20,5 C 20,5 C 6,3 C 63 % 79 % 100 % 1020,1 hPa 0,0 l/m 3,5 km/h (1 Bft) O-NO 67 5 min 0,0 UV-I 7,3 C 20,5 C 5,3 km/h (1 Bft)
05.06.2013 10:30 14,4 C 18,5 C 13,3 C 20,8 C 20,8 C 6,4 C 61 % 78 % 100 % 1020,1 hPa 0,0 l/m 3,5 km/h (1 Bft) W-SW 247 5 min 0,0 UV-I 7,0 C 20,8 C 9,3 km/h (2 Bft)
05.06.2013 10:35 14,7 C 18,6 C 13,3 C 21,0 C 21,0 C 6,3 C 62 % 79 % 100 % 1020,0 hPa 0,0 l/m 3,2 km/h (1 Bft) W-NW 292 5 min 0,0 UV-I 7,5 C 21,0 C 3,5 km/h (1 Bft)
05.06.2013 10:40 14,9 C 18,6 C 13,5 C 21,0 C 21,0 C 6,1 C 61 % 77 % 100 % 1020,0 hPa 0,0 l/m 3,1 km/h (1 Bft) O-NO 67 5 min 0,2 UV-I 7,4 C 21,0 C 4,7 km/h (1 Bft)
05.06.2013 10:45 15,0 C 18,6 C 13,3 C 20,9 C 20,9 C 5,9 C 62 % 78 % 100 % 1020,0 hPa 0,0 l/m 2,7 km/h (1 Bft) O-NO 67 5 min 0,2 UV-I 7,8 C 20,9 C 3,7 km/h (1 Bft)
05.06.2013 10:50 15,2 C 18,6 C 13,5 C 20,9 C 20,9 C 5,7 C 60 % 78 % 100 % 1020,0 hPa 0,0 l/m 3,4 km/h (1 Bft) O-NO 67 5 min 0,2 UV-I 7,5 C 20,9 C 7,4 km/h (2 Bft)
05.06.2013 10:55 15,1 C 18,6 C 13,7 C 20,4 C 20,4 C 5,3 C 59 % 76 % 100 % 1020,0 hPa 0,0 l/m 4,7 km/h (1 Bft) NO 45 5 min 0,2 UV-I 7,1 C 20,4 C 7,1 km/h (2 Bft)
05.06.2013 11:00 15,2 C 18,6 C 13,8 C 20,6 C 20,6 C 5,4 C 58 % 77 % 100 % 1020,0 hPa 0,0 l/m 4,2 km/h (1 Bft) NW 315 5 min 0,2 UV-I 7,0 C 20,6 C 5,8 km/h (2 Bft)
05.06.2013 11:05 15,3 C 18,6 C 13,9 C 20,6 C 20,6 C 5,3 C 57 % 70 % 100 % 1020,0 hPa 0,0 l/m 3,9 km/h (1 Bft) O-NO 67 5 min 0,2 UV-I 6,8 C 20,6 C 5,1 km/h (1 Bft)
05.06.2013 11:10 15,5 C 18,6 C 13,9 C 21,2 C 21,2 C 5,7 C 59 % 75 % 100 % 1020,0 hPa 0,0 l/m 3,5 km/h (1 Bft) O-NO 67 5 min 0,2 UV-I 7,5 C 21,2 C 4,8 km/h (1 Bft)
05.06.2013 11:15 15,6 C 18,6 C 14,0 C 21,4 C 21,4 C 5,8 C 58 % 74 % 100 % 1020,1 hPa 0,0 l/m 3,1 km/h (1 Bft) O 90 5 min 0,2 UV-I 7,4 C 21,4 C 7,2 km/h (2 Bft)
05.06.2013 11:20 15,6 C 18,6 C 14,3 C 21,6 C 21,6 C 6,0 C 59 % 76 % 100 % 1020,1 hPa 0,0 l/m 3,5 km/h (1 Bft) NO 45 5 min 0,2 UV-I 7,6 C 21,6 C 5,6 km/h (1 Bft)
05.06.2013 11:25 15,7 C 18,6 C 14,4 C 21,6 C 21,6 C 5,9 C 53 % 70 % 100 % 1020,1 hPa 0,0 l/m 4,3 km/h (1 Bft) O-SO 112 5 min 0,2 UV-I 6,1 C 21,6 C 10,9 km/h (2 Bft)
05.06.2013 11:30 15,5 C 18,6 C 14,4 C 20,9 C 20,9 C 5,4 C 54 % 69 % 100 % 1020,1 hPa 0,0 l/m 5,1 km/h (1 Bft) O-NO 67 5 min 0,0 UV-I 6,2 C 20,9 C 11,9 km/h (2 Bft)
05.06.2013 11:35 15,5 C 18,6 C 14,4 C 21,0 C 21,0 C 5,5 C 54 % 72 % 100 % 1019,9 hPa 0,0 l/m 4,7 km/h (1 Bft) N-NO 22 5 min 0,0 UV-I 6,2 C 21,0 C 7,9 km/h (2 Bft)
05.06.2013 11:40 15,8 C 18,6 C 14,8 C 21,6 C 21,6 C 5,8 C 55 % 69 % 100 % 1019,9 hPa 0,0 l/m 3,7 km/h (1 Bft) O-NO 67 5 min 0,0 UV-I 6,8 C 21,6 C 4,2 km/h (1 Bft)
05.06.2013 11:45 15,8 C 18,6 C 14,8 C 21,6 C 21,6 C 5,8 C 56 % 65 % 100 % 1019,9 hPa 0,0 l/m 3,7 km/h (1 Bft) NW 315 5 min 0,0 UV-I 7,0 C 21,6 C 9,5 km/h (2 Bft)
05.06.2013 11:50 16,0 C 18,6 C 14,8 C 21,8 C 21,8 C 5,8 C 53 % 66 % 100 % 1019,9 hPa 0,0 l/m 3,7 km/h (1 Bft) SO 135 5 min 0,0 UV-I 6,4 C 21,8 C 4,0 km/h (1 Bft)
05.06.2013 11:55 16,1 C 18,6 C 14,9 C 21,7 C 21,7 C 5,6 C 51 % 62 % 100 % 1019,8 hPa 0,0 l/m 4,2 km/h (1 Bft) O 90 5 min 0,0 UV-I 6,0 C 21,7 C 6,3 km/h (2 Bft)
05.06.2013 12:00 16,0 C 18,6 C 14,9 C 20,9 C 20,9 C 4,9 C 49 % 60 % 100 % 1019,8 hPa 0,0 l/m 6,1 km/h (2 Bft) NO 45 5 min 0,1 UV-I 5,3 C 20,9 C 12,6 km/h (3 Bft)
05.06.2013 12:05 15,9 C 18,6 C 14,9 C 20,6 C 20,6 C 4,7 C 50 % 59 % 100 % 1019,8 hPa 0,0 l/m 7,1 km/h (2 Bft) O 90 5 min 0,1 UV-I 5,5 C 20,6 C 10,0 km/h (2 Bft)
05.06.2013 12:10 16,1 C 18,6 C 15,1 C 20,3 C 20,3 C 4,2 C 52 % 60 % 100 % 1019,8 hPa 0,0 l/m 6,8 km/h (2 Bft) O-NO 67 5 min 0,1 UV-I 6,2 C 20,3 C 13,0 km/h (3 Bft)
05.06.2013 12:15 16,3 C 18,7 C 15,2 C 20,3 C 20,3 C 4,0 C 53 % 61 % 100 % 1019,6 hPa 0,0 l/m 5,8 km/h (2 Bft) O-SO 112 5 min 0,1 UV-I 6,7 C 20,3 C 6,1 km/h (2 Bft)
05.06.2013 12:20 16,3 C 18,7 C 15,3 C 20,0 C 20,0 C 3,7 C 53 % 62 % 97 % 1019,6 hPa 0,0 l/m 6,9 km/h (2 Bft) O 90 5 min 0,2 UV-I 6,7 C 20,0 C 13,5 km/h (3 Bft)
05.06.2013 12:25 16,4 C 18,7 C 15,4 C 20,1 C 20,1 C 3,7 C 53 % 64 % 97 % 1019,6 hPa 0,0 l/m 6,9 km/h (2 Bft) O-NO 67 5 min 0,2 UV-I 6,8 C 20,1 C 6,0 km/h (2 Bft)
05.06.2013 12:30 16,7 C 18,7 C 15,5 C 20,7 C 20,7 C 4,0 C 55 % 63 % 100 % 1019,6 hPa 0,0 l/m 4,5 km/h (1 Bft) O-NO 67 5 min 0,2 UV-I 7,6 C 20,7 C 4,7 km/h (1 Bft)
05.06.2013 12:35 16,9 C 18,7 C 15,6 C 21,0 C 21,0 C 4,1 C 54 % 61 % 100 % 1019,7 hPa 0,0 l/m 4,2 km/h (1 Bft) O-SO 112 5 min 0,2 UV-I 7,5 C 21,0 C 7,7 km/h (2 Bft)
05.06.2013 12:41 16,8 C 18,7 C 15,6 C 20,7 C 20,7 C 3,9 C 52 % 58 % 100 % 1019,7 hPa 0,0 l/m 6,6 km/h (2 Bft) N 0 6 min 0,2 UV-I 6,9 C 20,7 C 5,5 km/h (1 Bft)
05.06.2013 13:00 17,2 C 18,8 C 17,3 C 21,4 C 21,4 C 4,2 C 53 % 58 % 100 % 1019,7 hPa 0,0 l/m 4,5 km/h (1 Bft) O 90 19 min 0,2 UV-I 7,5 C 21,4 C 6,9 km/h (2 Bft)
05.06.2013 13:05 17,3 C 18,8 C 17,0 C 21,8 C 21,8 C 4,5 C 55 % 58 % 100 % 1019,7 hPa 0,0 l/m 3,9 km/h (1 Bft) O-SO 112 5 min 0,2 UV-I 8,2 C 21,8 C 7,1 km/h (2 Bft)
05.06.2013 13:10 17,4 C 18,8 C 16,8 C 21,9 C 21,9 C 4,5 C 55 % 59 % 100 % 1019,7 hPa 0,0 l/m 3,9 km/h (1 Bft) O-SO 112 5 min 0,2 UV-I 8,3 C 21,9 C 4,7 km/h (1 Bft)
05.06.2013 13:15 17,5 C 18,8 C 16,8 C 21,8 C 21,8 C 4,3 C 54 % 60 % 100 % 1019,4 hPa 0,0 l/m 3,9 km/h (1 Bft) O-NO 67 5 min 0,2 UV-I 8,1 C 21,8 C 5,6 km/h (1 Bft)
05.06.2013 13:20 17,6 C 18,8 C 16,7 C 21,8 C 21,8 C 4,2 C 54 % 60 % 100 % 1019,4 hPa 0,0 l/m 4,3 km/h (1 Bft) S 180 5 min 0,2 UV-I 8,2 C 21,8 C 7,9 km/h (2 Bft)
05.06.2013 13:25 17,7 C 18,8 C 16,8 C 22,2 C 22,2 C 4,5 C 52 % 57 % 100 % 1019,4 hPa 0,0 l/m 4,0 km/h (1 Bft) N-NO 22 5 min 0,2 UV-I 7,7 C 22,2 C 3,7 km/h (1 Bft)
05.06.2013 13:30 18,0 C 18,8 C 17,1 C 22,9 C 22,9 C 4,9 C 52 % 56 % 100 % 1019,4 hPa 0,0 l/m 2,6 km/h (1 Bft) W-SW 247 5 min 0,2 UV-I 8,0 C 22,9 C 1,9 km/h (1 Bft)
05.06.2013 13:35 18,0 C 18,9 C 17,2 C 23,0 C 23,0 C 5,0 C 52 % 57 % 100 % 1019,5 hPa 0,0 l/m 3,4 km/h (1 Bft) O-NO 67 5 min 0,2 UV-I 8,0 C 23,0 C 7,2 km/h (2 Bft)
05.06.2013 13:40 17,9 C 18,9 C 17,3 C 22,6 C 22,6 C 4,7 C 51 % 57 % 100 % 1019,5 hPa 0,0 l/m 4,5 km/h (1 Bft) O-SO 112 5 min 0,2 UV-I 7,6 C 22,6 C 3,2 km/h (1 Bft)
05.06.2013 13:45 17,7 C 18,9 C 17,2 C 22,5 C 22,5 C 4,8 C 53 % 58 % 100 % 1019,5 hPa 0,0 l/m 4,5 km/h (1 Bft) SO 135 5 min 0,2 UV-I 8,0 C 22,5 C 4,3 km/h (1 Bft)
05.06.2013 13:50 18,0 C 18,9 C 17,5 C 22,9 C 22,9 C 4,9 C 52 % 57 % 100 % 1019,5 hPa 0,0 l/m 4,2 km/h (1 Bft) O-SO 112 5 min 0,2 UV-I 8,0 C 22,9 C 8,9 km/h (2 Bft)
05.06.2013 13:55 17,9 C 18,9 C 17,5 C 22,3 C 22,3 C 4,4 C 51 % 56 % 100 % 1019,3 hPa 0,0 l/m 5,8 km/h (2 Bft) O-NO 67 5 min 0,2 UV-I 7,6 C 22,3 C 8,7 km/h (2 Bft)
05.06.2013 14:00 17,7 C 19,0 C 17,4 C 21,8 C 21,8 C 4,1 C 52 % 57 % 100 % 1019,3 hPa 0,0 l/m 6,8 km/h (2 Bft) O-NO 67 5 min 0,1 UV-I 7,7 C 21,8 C 4,7 km/h (1 Bft)
05.06.2013 14:05 17,9 C 19,0 C 17,5 C 22,0 C 22,0 C 4,1 C 52 % 58 % 100 % 1019,3 hPa 0,0 l/m 5,6 km/h (1 Bft) O 90 5 min 0,1 UV-I 7,9 C 22,0 C 8,2 km/h (2 Bft)
05.06.2013 14:10 17,9 C 19,0 C 17,4 C 22,2 C 22,2 C 4,3 C 51 % 58 % 100 % 1019,3 hPa 0,0 l/m 5,5 km/h (1 Bft) O 90 5 min 0,1 UV-I 7,6 C 22,2 C 12,9 km/h (3 Bft)
05.06.2013 14:15 17,7 C 19,0 C 17,2 C 22,1 C 22,1 C 4,4 C 54 % 59 % 100 % 1019,4 hPa 0,0 l/m 5,3 km/h (1 Bft) NO 45 5 min 0,1 UV-I 8,3 C 22,1 C 5,1 km/h (1 Bft)
05.06.2013 14:20 18,1 C 19,0 C 17,6 C 22,9 C 22,9 C 4,8 C 54 % 58 % 100 % 1019,4 hPa 0,0 l/m 4,3 km/h (1 Bft) O-SO 112 5 min 0,1 UV-I 8,6 C 22,9 C 4,8 km/h (1 Bft)
05.06.2013 14:25 18,3 C 19,0 C 17,6 C 23,0 C 23,0 C 4,7 C 52 % 58 % 100 % 1019,4 hPa 0,0 l/m 4,0 km/h (1 Bft) O 90 5 min 0,1 UV-I 8,3 C 23,0 C 7,1 km/h (2 Bft)
05.06.2013 14:30 18,1 C 19,0 C 17,6 C 23,0 C 23,0 C 4,9 C 50 % 57 % 100 % 1019,4 hPa 0,0 l/m 4,3 km/h (1 Bft) O 90 5 min 0,1 UV-I 7,5 C 23,0 C 9,2 km/h (2 Bft)
05.06.2013 14:35 18,0 C 19,0 C 17,6 C 22,8 C 22,8 C 4,8 C 51 % 57 % 100 % 1019,1 hPa 0,0 l/m 4,2 km/h (1 Bft) O-NO 67 5 min 0,1 UV-I 7,7 C 22,8 C 4,0 km/h (1 Bft)
05.06.2013 14:40 18,2 C 19,1 C 17,6 C 22,8 C 22,8 C 4,6 C 52 % 57 % 100 % 1019,1 hPa 0,0 l/m 4,5 km/h (1 Bft) O-SO 112 5 min 0,1 UV-I 8,2 C 22,8 C 7,7 km/h (2 Bft)
05.06.2013 14:45 18,2 C 19,1 C 17,8 C 22,9 C 22,9 C 4,7 C 53 % 57 % 100 % 1019,1 hPa 0,0 l/m 3,9 km/h (1 Bft) O-SO 112 5 min 0,1 UV-I 8,5 C 22,9 C 3,7 km/h (1 Bft)
05.06.2013 14:50 18,5 C 19,1 C 17,9 C 23,4 C 23,4 C 4,9 C 52 % 57 % 100 % 1019,1 hPa 0,0 l/m 3,2 km/h (1 Bft) SO 135 5 min 0,1 UV-I 8,5 C 23,4 C 1,9 km/h (1 Bft)
05.06.2013 14:55 18,5 C 19,1 C 17,9 C 23,8 C 23,8 C 5,3 C 50 % 59 % 100 % 1019,0 hPa 0,0 l/m 2,6 km/h (1 Bft) W-NW 292 5 min 0,1 UV-I 7,9 C 23,8 C 3,1 km/h (1 Bft)
05.06.2013 15:00 18,6 C 19,1 C 17,9 C 24,1 C 24,1 C 5,5 C 50 % 55 % 100 % 1019,0 hPa 0,0 l/m 2,6 km/h (1 Bft) SO 135 5 min 0,1 UV-I 8,0 C 24,1 C 1,6 km/h (1 Bft)
05.06.2013 15:05 18,6 C 19,1 C 17,9 C 24,3 C 24,3 C 5,7 C 51 % 56 % 100 % 1019,0 hPa 0,0 l/m 2,4 km/h (1 Bft) NO 45 5 min 0,1 UV-I 8,3 C 24,3 C 2,7 km/h (1 Bft)
05.06.2013 15:10 18,7 C 19,1 C 17,9 C 24,3 C 24,3 C 5,6 C 50 % 57 % 100 % 1019,0 hPa 0,0 l/m 3,1 km/h (1 Bft) O 90 5 min 0,1 UV-I 8,1 C 24,3 C 3,4 km/h (1 Bft)
05.06.2013 15:15 18,7 C 19,1 C 17,9 C 23,9 C 23,9 C 5,2 C 53 % 58 % 100 % 1018,8 hPa 0,0 l/m 4,2 km/h (1 Bft) O-NO 67 5 min 0,1 UV-I 8,9 C 23,9 C 6,1 km/h (2 Bft)
05.06.2013 15:20 18,4 C 19,2 C 17,8 C 23,2 C 23,2 C 4,8 C 49 % 55 % 100 % 1018,8 hPa 0,0 l/m 5,8 km/h (2 Bft) O 90 5 min 0,1 UV-I 7,5 C 23,2 C 14,3 km/h (3 Bft)
05.06.2013 15:25 18,4 C 19,2 C 17,9 C 23,0 C 23,0 C 4,6 C 52 % 57 % 100 % 1018,8 hPa 0,0 l/m 6,4 km/h (2 Bft) O-NO 67 5 min 0,1 UV-I 8,4 C 23,0 C 13,5 km/h (3 Bft)
05.06.2013 15:30 18,4 C 19,2 C 17,8 C 22,9 C 22,9 C 4,5 C 50 % 58 % 100 % 1018,8 hPa 0,0 l/m 5,3 km/h (1 Bft) O-NO 67 5 min 0,0 UV-I 7,8 C 22,9 C 4,8 km/h (1 Bft)
05.06.2013 15:35 18,5 C 19,2 C 17,9 C 23,1 C 23,1 C 4,6 C 50 % 56 % 100 % 1018,6 hPa 0,0 l/m 5,5 km/h (1 Bft) O-NO 67 5 min 0,0 UV-I 7,9 C 23,1 C 5,6 km/h (1 Bft)
05.06.2013 15:40 18,7 C 19,2 C 18,0 C 23,3 C 23,3 C 4,6 C 49 % 53 % 100 % 1018,6 hPa 0,0 l/m 4,2 km/h (1 Bft) NO 45 5 min 0,0 UV-I 7,8 C 23,3 C 2,1 km/h (1 Bft)
05.06.2013 15:45 18,8 C 19,3 C 18,1 C 23,9 C 23,9 C 5,1 C 49 % 54 % 100 % 1018,6 hPa 0,0 l/m 3,5 km/h (1 Bft) O-NO 67 5 min 0,0 UV-I 7,9 C 23,9 C 3,9 km/h (1 Bft)
05.06.2013 15:50 18,8 C 19,3 C 18,0 C 23,9 C 23,9 C 5,1 C 48 % 51 % 100 % 1018,6 hPa 0,0 l/m 3,2 km/h (1 Bft) O-SO 112 5 min 0,0 UV-I 7,6 C 23,9 C 4,8 km/h (1 Bft)
05.06.2013 15:55 18,6 C 19,3 C 17,8 C 23,4 C 23,4 C 4,8 C 47 % 53 % 100 % 1018,6 hPa 0,0 l/m 4,7 km/h (1 Bft) O-SO 112 5 min 0,0 UV-I 7,1 C 23,4 C 5,5 km/h (1 Bft)
05.06.2013 16:00 18,6 C 19,3 C 17,7 C 23,1 C 23,1 C 4,5 C 49 % 53 % 100 % 1018,6 hPa 0,0 l/m 4,2 km/h (1 Bft) NO 45 5 min 0,0 UV-I 7,7 C 23,1 C 2,4 km/h (1 Bft)
05.06.2013 16:05 18,7 C 19,3 C 17,8 C 23,4 C 23,4 C 4,7 C 47 % 55 % 100 % 1018,6 hPa 0,0 l/m 3,4 km/h (1 Bft) O-NO 67 5 min 0,0 UV-I 7,2 C 23,4 C 5,6 km/h (1 Bft)
05.06.2013 16:10 18,9 C 19,4 C 18,0 C 23,8 C 23,8 C 4,9 C 49 % 56 % 100 % 1018,6 hPa 0,0 l/m 2,7 km/h (1 Bft) O 90 5 min 0,0 UV-I 7,9 C 23,8 C 3,9 km/h (1 Bft)
05.06.2013 16:15 18,9 C 19,4 C 17,9 C 23,7 C 23,7 C 4,8 C 48 % 54 % 100 % 1018,8 hPa 0,0 l/m 3,2 km/h (1 Bft) O-NO 67 5 min 0,0 UV-I 7,6 C 23,7 C 4,3 km/h (1 Bft)
05.06.2013 16:20 18,8 C 19,4 C 17,9 C 23,5 C 23,5 C 4,7 C 49 % 55 % 100 % 1018,8 hPa 0,0 l/m 3,7 km/h (1 Bft) O 90 5 min 0,0 UV-I 7,9 C 23,5 C 6,9 km/h (2 Bft)
05.06.2013 16:25 18,7 C 19,4 C 17,8 C 23,3 C 23,3 C 4,6 C 46 % 53 % 100 % 1018,8 hPa 0,0 l/m 4,2 km/h (1 Bft) O-SO 112 5 min 0,0 UV-I 6,8 C 23,3 C 5,1 km/h (1 Bft)
05.06.2013 16:30 18,7 C 19,4 C 17,9 C 23,2 C 23,2 C 4,5 C 49 % 53 % 100 % 1018,8 hPa 0,0 l/m 4,5 km/h (1 Bft) O-NO 67 5 min 0,0 UV-I 7,8 C 23,2 C 5,1 km/h (1 Bft)
05.06.2013 16:35 18,5 C 19,5 C 17,9 C 23,2 C 23,2 C 4,7 C 46 % 53 % 100 % 1019,1 hPa 0,0 l/m 4,3 km/h (1 Bft) O-SO 112 5 min 0,0 UV-I 6,7 C 23,2 C 4,7 km/h (1 Bft)
05.06.2013 16:40 18,7 C 19,5 C 17,9 C 23,6 C 23,6 C 4,9 C 47 % 53 % 100 % 1019,1 hPa 0,0 l/m 4,5 km/h (1 Bft) O 90 5 min 0,0 UV-I 7,2 C 23,6 C 9,5 km/h (2 Bft)
05.06.2013 16:45 18,7 C 19,5 C 18,0 C 23,5 C 23,5 C 4,8 C 49 % 56 % 100 % 1019,1 hPa 0,0 l/m 4,3 km/h (1 Bft) NO 45 5 min 0,0 UV-I 7,8 C 23,5 C 2,6 km/h (1 Bft)
05.06.2013 16:50 18,9 C 19,5 C 18,0 C 24,4 C 24,4 C 5,5 C 48 % 54 % 100 % 1019,1 hPa 0,0 l/m 3,2 km/h (1 Bft) NW 315 5 min 0,0 UV-I 7,6 C 24,4 C 0,0 km/h (0 Bft)
05.06.2013 16:55 19,2 C 19,5 C 18,2 C 24,9 C 24,9 C 5,7 C 48 % 55 % 100 % 1018,9 hPa 0,0 l/m 2,1 km/h (1 Bft) N-NO 22 5 min 0,0 UV-I 7,9 C 24,9 C 5,6 km/h (1 Bft)
05.06.2013 17:00 19,2 C 19,6 C 18,2 C 25,3 C 25,3 C 6,1 C 48 % 55 % 100 % 1018,9 hPa 0,0 l/m 2,7 km/h (1 Bft) NW 315 5 min 0,0 UV-I 7,9 C 25,3 C 4,0 km/h (1 Bft)
05.06.2013 17:05 19,2 C 19,6 C 18,2 C 25,4 C 25,4 C 6,2 C 47 % 54 % 100 % 1018,9 hPa 0,0 l/m 3,1 km/h (1 Bft) NW 315 5 min 0,0 UV-I 7,6 C 25,4 C 9,0 km/h (2 Bft)
05.06.2013 17:10 19,1 C 19,6 C 18,1 C 24,5 C 24,5 C 5,4 C 46 % 52 % 100 % 1018,9 hPa 0,0 l/m 4,7 km/h (1 Bft) O-NO 67 5 min 0,0 UV-I 7,2 C 24,5 C 2,4 km/h (1 Bft)
05.06.2013 17:15 18,9 C 19,6 C 18,1 C 24,0 C 24,0 C 5,1 C 49 % 55 % 100 % 1018,8 hPa 0,0 l/m 5,3 km/h (1 Bft) N-NW 337 5 min 0,0 UV-I 7,9 C 24,0 C 3,1 km/h (1 Bft)
05.06.2013 17:20 19,0 C 19,6 C 18,0 C 24,0 C 24,0 C 5,0 C 47 % 56 % 100 % 1018,8 hPa 0,0 l/m 4,0 km/h (1 Bft) NO 45 5 min 0,0 UV-I 7,4 C 24,0 C 3,7 km/h (1 Bft)
05.06.2013 17:25 19,0 C 19,6 C 17,9 C 24,0 C 24,0 C 5,0 C 47 % 56 % 100 % 1018,8 hPa 0,0 l/m 4,0 km/h (1 Bft) O 90 5 min 0,0 UV-I 7,4 C 24,0 C 8,0 km/h (2 Bft)
05.06.2013 17:30 18,9 C 19,7 C 17,9 C 23,6 C 23,6 C 4,7 C 46 % 53 % 100 % 1018,8 hPa 0,0 l/m 5,3 km/h (1 Bft) O-SO 112 5 min 0,0 UV-I 7,0 C 23,6 C 8,4 km/h (2 Bft)
05.06.2013 17:35 18,9 C 19,7 C 18,0 C 23,4 C 23,4 C 4,5 C 45 % 50 % 100 % 1018,8 hPa 0,0 l/m 5,8 km/h (2 Bft) O 90 5 min 0,0 UV-I 6,7 C 23,4 C 5,1 km/h (1 Bft)
05.06.2013 17:40 18,9 C 19,7 C 18,0 C 23,4 C 23,4 C 4,5 C 46 % 52 % 100 % 1018,8 hPa 0,0 l/m 4,8 km/h (1 Bft) NO 45 5 min 0,0 UV-I 7,0 C 23,4 C 4,2 km/h (1 Bft)
05.06.2013 17:45 18,8 C 19,7 C 17,9 C 23,5 C 23,5 C 4,7 C 45 % 54 % 100 % 1018,8 hPa 0,0 l/m 4,7 km/h (1 Bft) O 90 5 min 0,0 UV-I 6,6 C 23,5 C 7,4 km/h (2 Bft)
05.06.2013 17:50 18,7 C 19,7 C 17,9 C 23,3 C 23,3 C 4,6 C 45 % 52 % 100 % 1018,8 hPa 0,0 l/m 5,0 km/h (1 Bft) O-NO 67 5 min 0,0 UV-I 6,5 C 23,3 C 4,0 km/h (1 Bft)
05.06.2013 17:55 18,9 C 19,7 C 17,9 C 23,5 C 23,5 C 4,6 C 48 % 54 % 100 % 1019,0 hPa 0,0 l/m 4,2 km/h (1 Bft) O-SO 112 5 min 0,0 UV-I 7,6 C 23,5 C 2,3 km/h (1 Bft)
05.06.2013 18:00 19,1 C 19,7 C 18,0 C 24,3 C 24,3 C 5,2 C 47 % 54 % 100 % 1019,0 hPa 0,0 l/m 2,9 km/h (1 Bft) O-NO 67 5 min 0,0 UV-I 7,5 C 24,3 C 5,6 km/h (1 Bft)
05.06.2013 18:05 18,9 C 19,7 C 18,1 C 24,2 C 24,2 C 5,3 C 48 % 54 % 100 % 1019,0 hPa 0,0 l/m 3,1 km/h (1 Bft) O-SO 112 5 min 0,0 UV-I 7,6 C 24,2 C 4,3 km/h (1 Bft)
05.06.2013 18:10 18,9 C 19,7 C 18,1 C 24,1 C 24,1 C 5,2 C 48 % 54 % 100 % 1019,0 hPa 0,0 l/m 3,5 km/h (1 Bft) O-NO 67 5 min 0,0 UV-I 7,6 C 24,1 C 6,4 km/h (2 Bft)
05.06.2013 18:15 18,8 C 19,8 C 17,9 C 24,0 C 24,0 C 5,2 C 47 % 53 % 100 % 1018,9 hPa 0,0 l/m 4,0 km/h (1 Bft) O-NO 67 5 min 0,0 UV-I 7,2 C 24,0 C 9,5 km/h (2 Bft)
05.06.2013 18:20 18,7 C 19,8 C 17,9 C 23,2 C 23,2 C 4,5 C 46 % 53 % 100 % 1018,9 hPa 0,0 l/m 5,0 km/h (1 Bft) O 90 5 min 0,0 UV-I 6,8 C 23,2 C 3,7 km/h (1 Bft)
05.06.2013 18:25 18,6 C 19,8 C 17,9 C 23,0 C 23,0 C 4,4 C 45 % 51 % 100 % 1018,9 hPa 0,0 l/m 5,0 km/h (1 Bft) O-NO 67 5 min 0,0 UV-I 6,4 C 23,0 C 2,9 km/h (1 Bft)
05.06.2013 18:30 18,6 C 19,8 C 17,8 C 23,3 C 23,3 C 4,7 C 47 % 53 % 100 % 1018,9 hPa 0,0 l/m 3,1 km/h (1 Bft) O-NO 67 5 min 0,0 UV-I 7,1 C 23,3 C 4,8 km/h (1 Bft)
05.06.2013 18:35 18,7 C 19,8 C 18,0 C 23,7 C 23,7 C 5,0 C 47 % 53 % 100 % 1018,9 hPa 0,0 l/m 2,6 km/h (1 Bft) O-SO 112 5 min 0,0 UV-I 7,2 C 23,7 C 7,7 km/h (2 Bft)
05.06.2013 18:41 18,7 C 19,8 C 17,8 C 23,3 C 23,3 C 4,6 C 47 % 53 % 100 % 1018,9 hPa 0,0 l/m 3,7 km/h (1 Bft) N 0 6 min 0,0 UV-I 7,2 C 23,3 C 4,8 km/h (1 Bft)
05.06.2013 18:58 18,8 C 19,8 C 17,9 C 23,7 C 23,7 C 4,9 C 49 % 56 % 100 % 1018,6 hPa 0,0 l/m 1,6 km/h (1 Bft) SO 135 17 min 0,0 UV-I 7,9 C 23,7 C 0,0 km/h (0 Bft)
05.06.2013 18:59 18,8 C 19,8 C 17,9 C 23,7 C 23,7 C 4,9 C 49 % 56 % 100 % 1018,6 hPa 0,0 l/m 1,6 km/h (1 Bft) SO 135 1 min 0,0 UV-I 7,9 C 23,7 C 0,0 km/h (0 Bft)
05.06.2013 19:05 18,8 C 19,8 C 17,9 C 24,0 C 24,0 C 5,2 C 48 % 55 % 100 % 1018,6 hPa 0,0 l/m 1,9 km/h (1 Bft) O-NO 67 6 min 0,0 UV-I 7,6 C 24,0 C 2,3 km/h (1 Bft)
05.06.2013 19:10 18,8 C 19,9 C 17,9 C 23,4 C 23,4 C 4,6 C 48 % 55 % 100 % 1018,6 hPa 0,0 l/m 3,2 km/h (1 Bft) O-NO 67 5 min 0,0 UV-I 7,6 C 23,4 C 4,5 km/h (1 Bft)
05.06.2013 19:15 18,7 C 19,9 C 17,8 C 23,1 C 23,1 C 4,4 C 49 % 55 % 100 % 1018,7 hPa 0,0 l/m 3,7 km/h (1 Bft) O 90 5 min 0,0 UV-I 7,8 C 23,1 C 3,7 km/h (1 Bft)
05.06.2013 19:20 18,7 C 19,9 C 17,9 C 22,8 C 22,8 C 4,1 C 50 % 56 % 100 % 1018,7 hPa 0,0 l/m 3,2 km/h (1 Bft) O-NO 67 5 min 0,0 UV-I 8,1 C 22,8 C 2,6 km/h (1 Bft)
05.06.2013 19:25 18,6 C 19,9 C 17,8 C 22,9 C 22,9 C 4,3 C 50 % 58 % 100 % 1018,7 hPa 0,0 l/m 2,3 km/h (1 Bft) O-NO 67 5 min 0,0 UV-I 8,0 C 22,9 C 1,6 km/h (1 Bft)
05.06.2013 19:30 18,7 C 19,9 C 17,6 C 23,3 C 23,3 C 4,6 C 52 % 58 % 100 % 1018,7 hPa 0,0 l/m 0,6 km/h (0 Bft) O-NO 67 5 min 0,0 UV-I 8,6 C 23,3 C 0,0 km/h (0 Bft)
05.06.2013 19:35 18,9 C 19,9 C 17,6 C 23,7 C 23,7 C 4,8 C 52 % 59 % 100 % 1018,8 hPa 0,0 l/m 0,0 km/h (0 Bft) O-NO 67 5 min 0,0 UV-I 8,8 C 23,7 C 0,0 km/h (0 Bft)
05.06.2013 19:40 18,9 C 19,9 C 17,5 C 23,9 C 23,9 C 5,0 C 51 % 59 % 100 % 1018,8 hPa 0,0 l/m 0,3 km/h (0 Bft) NW 315 5 min 0,0 UV-I 8,5 C 23,9 C 0,0 km/h (0 Bft)
05.06.2013 19:45 19,0 C 19,9 C 17,6 C 24,0 C 24,0 C 5,0 C 53 % 60 % 100 % 1018,8 hPa 0,0 l/m 0,5 km/h (0 Bft) NW 315 5 min 0,0 UV-I 9,2 C 24,0 C 2,3 km/h (1 Bft)
05.06.2013 19:50 19,2 C 19,9 C 17,5 C 23,7 C 23,7 C 4,5 C 52 % 59 % 100 % 1018,8 hPa 0,0 l/m 0,6 km/h (0 Bft) SW 225 5 min 0,0 UV-I 9,1 C 23,7 C 0,0 km/h (0 Bft)
05.06.2013 19:55 19,2 C 19,9 C 17,3 C 23,7 C 23,7 C 4,5 C 52 % 62 % 100 % 1018,9 hPa 0,0 l/m 0,5 km/h (0 Bft) O-NO 67 5 min 0,0 UV-I 9,1 C 23,7 C 0,0 km/h (0 Bft)
05.06.2013 20:00 19,1 C 19,9 C 17,0 C 23,7 C 23,7 C 4,6 C 53 % 63 % 100 % 1018,9 hPa 0,0 l/m 0,0 km/h (0 Bft) N-NO 22 5 min 0,0 UV-I 9,3 C 23,7 C 0,0 km/h (0 Bft)
05.06.2013 20:05 18,9 C 19,9 C 16,9 C 22,9 C 22,9 C 4,0 C 54 % 65 % 100 % 1018,9 hPa 0,0 l/m 0,0 km/h (0 Bft) N-NW 337 5 min 0,0 UV-I 9,4 C 22,9 C 0,0 km/h (0 Bft)
05.06.2013 20:10 18,6 C 19,9 C 16,6 C 21,1 C 21,1 C 2,5 C 54 % 66 % 66 % 1018,9 hPa 0,0 l/m 0,0 km/h (0 Bft) W 270 5 min 0,0 UV-I 9,1 C 21,1 C 0,0 km/h (0 Bft)
05.06.2013 20:15 18,5 C 19,9 C 16,5 C 20,1 C 20,1 C 1,6 C 55 % 67 % 42 % 1019,2 hPa 0,0 l/m 0,0 km/h (0 Bft) NO 45 5 min 0,0 UV-I 9,3 C 20,1 C 0,0 km/h (0 Bft)
05.06.2013 20:20 18,0 C 19,9 C 16,2 C 18,8 C 18,8 C 0,8 C 55 % 68 % 21 % 1019,2 hPa 0,0 l/m 0,0 km/h (0 Bft) NO 45 0 min 0,0 UV-I 8,8 C 18,8 C 0,0 km/h (0 Bft)
05.06.2013 20:25 17,9 C 19,9 C 16,0 C 18,2 C 18,2 C 0,3 C 56 % 68 % 8 % 1019,2 hPa 0,0 l/m 0,0 km/h (0 Bft) O-NO 67 0 min 0,0 UV-I 9,0 C 18,2 C 0,0 km/h (0 Bft)
05.06.2013 20:30 17,6 C 19,9 C 15,8 C 17,6 C 17,5 C 0,0 C 58 % 69 % 0 % 1019,2 hPa 0,0 l/m 0,0 km/h (0 Bft) O-NO 67 0 min 0,0 UV-I 9,2 C 17,5 C 0,0 km/h (0 Bft)
05.06.2013 20:35 17,5 C 19,9 C 15,6 C 17,4 C 17,1 C 0,0 C 59 % 70 % 0 % 1019,8 hPa 0,0 l/m 0,0 km/h (0 Bft) O-NO 67 0 min 0,0 UV-I 9,4 C 17,1 C 0,0 km/h (0 Bft)
05.06.2013 20:40 17,1 C 19,9 C 15,3 C 16,9 C 16,6 C 0,0 C 60 % 70 % 0 % 1019,8 hPa 0,0 l/m 0,0 km/h (0 Bft) O-NO 67 0 min 0,0 UV-I 9,3 C 16,6 C 0,0 km/h (0 Bft)
05.06.2013 20:45 16,9 C 19,9 C 15,2 C 16,7 C 16,3 C 0,0 C 62 % 70 % 0 % 1019,8 hPa 0,0 l/m 0,0 km/h (0 Bft) O-NO 67 0 min 0,0 UV-I 9,6 C 16,3 C 0,0 km/h (0 Bft)
05.06.2013 20:50 16,6 C 20,1 C 15,1 C 16,3 C 15,8 C 0,0 C 63 % 73 % 0 % 1019,8 hPa 0,0 l/m 0,0 km/h (0 Bft) N-NW 337 0 min 0,0 UV-I 9,5 C 15,8 C 0,0 km/h (0 Bft)
05.06.2013 20:55 16,5 C 20,1 C 14,8 C 16,2 C 15,5 C 0,0 C 63 % 72 % 0 % 1019,0 hPa 0,0 l/m 0,0 km/h (0 Bft) N-NW 337 0 min 0,0 UV-I 9,4 C 15,5 C 0,0 km/h (0 Bft)
05.06.2013 21:00 16,1 C 20,1 C 14,6 C 15,8 C 15,1 C 0,0 C 63 % 73 % 0 % 1019,0 hPa 0,0 l/m 0,0 km/h (0 Bft) N-NW 337 0 min 0,0 UV-I 9,1 C 15,1 C 0,0 km/h (0 Bft)
05.06.2013 21:05 15,9 C 20,1 C 14,4 C 15,6 C 14,9 C 0,0 C 63 % 74 % 0 % 1019,0 hPa 0,0 l/m 0,0 km/h (0 Bft) N-NW 337 0 min 0,0 UV-I 8,9 C 14,9 C 0,0 km/h (0 Bft)
05.06.2013 21:10 15,6 C 20,1 C 14,3 C 15,1 C 14,2 C 0,0 C 65 % 75 % 0 % 1019,0 hPa 0,0 l/m 0,0 km/h (0 Bft) W-NW 292 0 min 0,0 UV-I 9,0 C 14,2 C 0,0 km/h (0 Bft)
05.06.2013 21:15 15,4 C 20,1 C 14,1 C 14,9 C 13,8 C 0,0 C 66 % 75 % 0 % 1019,1 hPa 0,0 l/m 0,0 km/h (0 Bft) W-NW 292 0 min 0,0 UV-I 9,1 C 13,8 C 0,0 km/h (0 Bft)
05.06.2013 21:20 15,2 C 20,2 C 13,9 C 14,5 C 13,2 C 0,0 C 67 % 76 % 0 % 1019,1 hPa 0,0 l/m 0,0 km/h (0 Bft) W-NW 292 0 min 0,0 UV-I 9,1 C 13,2 C 0,0 km/h (0 Bft)
05.06.2013 21:25 14,8 C 20,2 C 13,6 C 14,2 C 12,9 C 0,0 C 68 % 76 % 0 % 1019,1 hPa 0,0 l/m 0,0 km/h (0 Bft) W-NW 292 0 min 0,0 UV-I 9,0 C 12,9 C 0,0 km/h (0 Bft)
05.06.2013 21:30 14,5 C 20,2 C 13,3 C 13,8 C 12,5 C 0,0 C 69 % 77 % 0 % 1019,1 hPa 0,0 l/m 0,0 km/h (0 Bft) W-NW 292 0 min 0,0 UV-I 8,9 C 12,5 C 0,0 km/h (0 Bft)
05.06.2013 21:35 14,2 C 20,1 C 13,2 C 13,6 C 12,3 C 0,0 C 70 % 78 % 0 % 1019,3 hPa 0,0 l/m 0,0 km/h (0 Bft) W-NW 292 0 min 0,0 UV-I 8,8 C 12,3 C 0,0 km/h (0 Bft)
05.06.2013 21:40 14,0 C 20,2 C 12,9 C 13,3 C 11,9 C 0,0 C 71 % 78 % 0 % 1019,3 hPa 0,0 l/m 0,0 km/h (0 Bft) W-NW 292 0 min 0,0 UV-I 8,8 C 11,9 C 0,0 km/h (0 Bft)
05.06.2013 21:45 13,7 C 20,2 C 12,9 C 13,0 C 11,6 C 0,0 C 71 % 78 % 0 % 1019,3 hPa 0,0 l/m 0,0 km/h (0 Bft) W-NW 292 0 min 0,0 UV-I 8,5 C 11,6 C 0,0 km/h (0 Bft)
05.06.2013 21:50 13,4 C 20,2 C 12,7 C 12,7 C 11,2 C 0,0 C 73 % 79 % 0 % 1019,3 hPa 0,0 l/m 0,0 km/h (0 Bft) W-NW 292 0 min 0,0 UV-I 8,7 C 11,2 C 0,0 km/h (0 Bft)
05.06.2013 21:55 13,2 C 20,2 C 12,5 C 12,5 C 11,1 C 0,0 C 73 % 79 % 0 % 1019,3 hPa 0,0 l/m 0,0 km/h (0 Bft) W-NW 292 0 min 0,0 UV-I 8,5 C 11,1 C 0,0 km/h (0 Bft)
05.06.2013 22:00 12,9 C 20,3 C 12,4 C 12,2 C 10,8 C 0,0 C 75 % 80 % 0 % 1019,3 hPa 0,0 l/m 0,0 km/h (0 Bft) W-NW 292 0 min 0,0 UV-I 8,6 C 10,8 C 0,0 km/h (0 Bft)
05.06.2013 22:05 12,8 C 20,2 C 12,3 C 12,1 C 10,6 C 0,0 C 75 % 80 % 0 % 1019,3 hPa 0,0 l/m 0,0 km/h (0 Bft) W-NW 292 0 min 0,0 UV-I 8,5 C 10,6 C 0,0 km/h (0 Bft)
05.06.2013 22:10 12,5 C 20,4 C 12,0 C 11,8 C 10,5 C 0,0 C 77 % 81 % 0 % 1019,3 hPa 0,0 l/m 0,0 km/h (0 Bft) W-NW 292 0 min 0,0 UV-I 8,6 C 10,5 C 0,0 km/h (0 Bft)
05.06.2013 22:15 12,5 C 20,4 C 12,0 C 11,8 C 10,4 C 0,0 C 77 % 81 % 0 % 1019,7 hPa 0,0 l/m 0,0 km/h (0 Bft) W-NW 292 0 min 0,0 UV-I 8,6 C 10,4 C 0,0 km/h (0 Bft)
05.06.2013 22:20 12,2 C 20,3 C 11,9 C 11,5 C 10,2 C 0,0 C 78 % 81 % 0 % 1019,7 hPa 0,0 l/m 0,0 km/h (0 Bft) W-NW 292 0 min 0,0 UV-I 8,5 C 10,2 C 0,0 km/h (0 Bft)
05.06.2013 22:25 12,0 C 20,4 C 11,7 C 11,3 C 10,0 C 0,0 C 79 % 81 % 0 % 1019,7 hPa 0,0 l/m 0,0 km/h (0 Bft) W-NW 292 0 min 0,0 UV-I 8,5 C 10,0 C 0,0 km/h (0 Bft)
05.06.2013 22:30 11,9 C 20,4 C 11,5 C 11,2 C 9,9 C 0,0 C 79 % 82 % 0 % 1019,7 hPa 0,0 l/m 0,0 km/h (0 Bft) W-NW 292 0 min 0,0 UV-I 8,4 C 9,9 C 0,0 km/h (0 Bft)
05.06.2013 22:35 11,7 C 20,4 C 11,5 C 11,1 C 9,8 C 0,0 C 80 % 82 % 0 % 1020,0 hPa 0,0 l/m 0,0 km/h (0 Bft) W-NW 292 0 min 0,0 UV-I 8,4 C 9,8 C 0,0 km/h (0 Bft)
05.06.2013 22:40 11,4 C 20,4 C 11,3 C 10,8 C 9,6 C 0,0 C 80 % 82 % 0 % 1020,0 hPa 0,0 l/m 0,0 km/h (0 Bft) W-NW 292 0 min 0,0 UV-I 8,1 C 9,6 C 0,0 km/h (0 Bft)
05.06.2013 22:45 11,3 C 20,4 C 11,2 C 10,7 C 9,6 C 0,0 C 80 % 82 % 0 % 1020,0 hPa 0,0 l/m 0,0 km/h (0 Bft) W-NW 292 0 min 0,0 UV-I 8,0 C 9,6 C 0,0 km/h (0 Bft)
05.06.2013 22:50 11,1 C 20,4 C 11,1 C 10,6 C 9,5 C 0,0 C 81 % 82 % 0 % 1020,0 hPa 0,0 l/m 0,0 km/h (0 Bft) W-NW 292 0 min 0,0 UV-I 8,0 C 9,5 C 0,0 km/h (0 Bft)
05.06.2013 22:55 10,9 C 20,4 C 11,1 C 10,4 C 9,5 C 0,0 C 81 % 82 % 0 % 1020,3 hPa 0,0 l/m 0,0 km/h (0 Bft) W-NW 292 0 min 0,0 UV-I 7,8 C 9,5 C 0,0 km/h (0 Bft)
05.06.2013 23:00 10,8 C 20,4 C 10,8 C 10,3 C 9,3 C 0,0 C 82 % 83 % 0 % 1020,3 hPa 0,0 l/m 0,0 km/h (0 Bft) NW 315 0 min 0,0 UV-I 7,9 C 9,3 C 0,0 km/h (0 Bft)
05.06.2013 23:05 10,7 C 20,5 C 10,7 C 10,2 C 9,3 C 0,0 C 82 % 83 % 0 % 1020,3 hPa 0,0 l/m 0,0 km/h (0 Bft) NW 315 0 min 0,0 UV-I 7,8 C 9,3 C 0,0 km/h (0 Bft)
05.06.2013 23:10 10,5 C 20,4 C 10,6 C 10,0 C 9,1 C 0,0 C 83 % 83 % 0 % 1020,3 hPa 0,0 l/m 0,0 km/h (0 Bft) NW 315 0 min 0,0 UV-I 7,7 C 9,1 C 0,0 km/h (0 Bft)
05.06.2013 23:15 10,3 C 20,4 C 10,5 C 9,9 C 9,0 C 0,0 C 82 % 83 % 0 % 1019,6 hPa 0,0 l/m 0,0 km/h (0 Bft) NW 315 0 min 0,0 UV-I 7,4 C 9,0 C 0,0 km/h (0 Bft)
05.06.2013 23:20 10,0 C 20,4 C 10,3 C 9,6 C 8,9 C 0,0 C 83 % 83 % 0 % 1019,6 hPa 0,0 l/m 0,0 km/h (0 Bft) W 270 0 min 0,0 UV-I 7,2 C 8,9 C 0,0 km/h (0 Bft)
05.06.2013 23:25 9,9 C 20,4 C 10,3 C 9,6 C 8,9 C 0,0 C 83 % 83 % 0 % 1019,6 hPa 0,0 l/m 0,0 km/h (0 Bft) W 270 0 min 0,0 UV-I 7,2 C 8,9 C 0,0 km/h (0 Bft)
05.06.2013 23:30 9,7 C 20,5 C 10,1 C 9,4 C 8,9 C 0,0 C 83 % 83 % 0 % 1019,6 hPa 0,0 l/m 0,0 km/h (0 Bft) W 270 0 min 0,0 UV-I 7,0 C 8,9 C 0,0 km/h (0 Bft)
05.06.2013 23:35 9,6 C 20,5 C 10,0 C 9,4 C 8,9 C 0,0 C 83 % 83 % 0 % 1020,0 hPa 0,0 l/m 0,0 km/h (0 Bft) W-NW 292 0 min 0,0 UV-I 6,9 C 8,9 C 0,0 km/h (0 Bft)
05.06.2013 23:40 9,5 C 20,5 C 9,9 C 9,3 C 8,8 C 0,0 C 84 % 83 % 0 % 1020,0 hPa 0,0 l/m 0,0 km/h (0 Bft) N-NW 337 0 min 0,0 UV-I 6,9 C 8,8 C 0,0 km/h (0 Bft)
05.06.2013 23:45 9,3 C 20,5 C 9,9 C 9,1 C 8,8 C 0,0 C 84 % 84 % 0 % 1020,0 hPa 0,0 l/m 0,0 km/h (0 Bft) N-NW 337 0 min 0,0 UV-I 6,7 C 8,8 C 0,0 km/h (0 Bft)
05.06.2013 23:50 9,2 C 20,5 C 9,9 C 9,0 C 8,7 C 0,0 C 84 % 84 % 0 % 1020,0 hPa 0,0 l/m 0,0 km/h (0 Bft) O-NO 67 0 min 0,0 UV-I 6,6 C 8,7 C 0,0 km/h (0 Bft)
05.06.2013 23:55 9,0 C 20,5 C 9,8 C 8,9 C 8,7 C 0,0 C 84 % 84 % 0 % 1019,6 hPa 0,0 l/m 0,0 km/h (0 Bft) O-NO 67 0 min 0,0 UV-I 6,4 C 8,7 C 0,0 km/h (0 Bft)
_ Min-Zeit 06:20 09:35 05:55 05:25 05:20 01:50 17:35 17:35 00:00 00:00 - 00:00 - - - 00:20 06:20 05:20 00:00
Minimum _ 4,3 C 18,5 C 6,2 C 4,7 C 4,7 C 0,0 C 45 % 50 % 0 % 1018,1 hPa - 0,0 km/h (0 Bft) - - - 0,0 UV-I 2,8 C 4,7 C 0,0 km/h (0 Bft)
_ Max-Zeit 16:55 23:05 16:55 17:05 17:05 07:55 07:15 07:15 07:00 07:35 00:00 12:05 - - 07:00 07:30 09:10 17:05 15:20
Maximum _ 19,2 C 20,5 C 18,2 C 25,4 C 25,4 C 12,0 C 93 % 91 % 100 % 1020,7 hPa 0,0 l/m 7,1 km/h
O (2 Bft)
- - 19 min 2,7 UV-I 9,9 C 25,4 C 14,3 km/h
O (3 Bft)
Durchschnitt _ 13,1 C 19,4 C 13,0 C 16,5 C 16,3 C 3,4 C 70 % 75 % 57 % 1019,2 hPa #0,0 l/m 1,8 km/h (1 Bft) O-NO - #13:34 h 0,3 UV-I 7,2 C 16,3 C 2,5 km/h (1 Bft)
2013 www.wetterstation-wechselburg.de